< Typhoon 197904 1979 Season Typhoon 197906 >
Typhoon 197905 (NO-NAME)
General InformationTrack Information on Google MapsDetailed Wind InformationList of All Images || Disaster Info.ResourceGoogle EarthGE AnimationAtom FeedGeoJSON
Detalied Best Track (Time Zone = UTC)
Year Month Day Hour Lat. Long. Pressure (hPa) Wind (kt) Class Image Chart
1979 5 19 00 15.0 112.0 1004 0 2 Image Chart
1979 5 19 06 15.0 112.0 1004 0 2 Image Chart
1979 5 19 12 15.0 112.0 1004 0 2 Image Chart
1979 5 19 18 15.0 112.0 1004 0 2 Image Chart
1979 5 20 00 15.0 112.0 1004 0 2 Image Chart
1979 5 20 06 15.5 112.1 1004 0 2 Image Chart
1979 5 20 12 16.1 112.5 1004 0 2 Image Chart
1979 5 20 18 17.0 113.1 1004 0 2 Image Chart
1979 5 21 00 18.1 113.9 1004 0 2 Image Chart
1979 5 21 06 19.1 114.8 1004 0 2 Image Chart
1979 5 21 12 20.0 115.5 1004 0 2 Image Chart
1979 5 21 18 20.7 116.4 1000 0 2 Image Chart
1979 5 22 00 21.1 117.9 998 0 2 Image Chart
1979 5 22 06 21.5 119.3 998 0 2 Image Chart
1979 5 22 12 21.6 120.8 998 0 2 Image Chart
1979 5 22 18 21.7 122.3 998 0 2 Image Chart
1979 5 23 00 21.8 124.5 998 0 2 Image Chart
1979 5 23 06 22.1 126.4 992 35 3 Image Chart
1979 5 23 12 22.6 128.3 992 40 3 Image Chart
1979 5 23 18 23.4 130.5 992 40 3 Image Chart
1979 5 24 00 24.5 132.6 996 35 3 Image Chart
1979 5 24 06 25.8 134.6 1000 0 6 Image Chart
1979 5 24 12 27.2 136.6 1004 0 6 Image Chart
1979 5 24 18 28.8 139.1 1004 0 6 Image Chart
1979 5 25 00 30.8 142.0 1004 0 6 Image Chart
1979 5 25 06 32.2 144.9 1008 0 6 Image Chart
1979 5 25 12 33.0 146.1 1008 0 6 Image Chart
1979 5 25 18 34.0 147.7 1010 0 6 Image Chart
1979 5 26 00 34.9 149.2 1010 0 6 Image Chart
1979 5 26 06 35.9 150.8 1010 0 6 Image Chart
1979 5 26 12 36.9 152.9 1010 0 6 Image Chart
1979 5 26 18 38.1 155.1 1010 0 6 Image Chart
Japan Meteorological Agency Best Track Data | Correction Date : 1992-10-21
< Typhoon 197904 1979 Season Typhoon 197906 >

Help